createdAt,value
2018-02-12T00:01:55.841Z,2.70
2018-02-12T00:04:23.940Z,2.70
2018-02-12T00:06:52.028Z,2.70
2018-02-12T00:09:20.994Z,2.70
2018-02-12T00:11:49.240Z,2.70
2018-02-12T00:14:17.458Z,2.70
2018-02-12T00:16:45.840Z,2.60
2018-02-12T00:19:14.560Z,2.70
2018-02-12T00:21:42.654Z,2.70
2018-02-12T00:24:10.735Z,2.60
2018-02-12T00:26:38.834Z,2.60
2018-02-12T00:29:06.956Z,2.60
2018-02-12T00:31:35.220Z,2.60
2018-02-12T00:34:03.418Z,2.60
2018-02-12T00:36:32.280Z,2.60
2018-02-12T00:39:00.364Z,2.60
2018-02-12T00:41:28.533Z,2.60
2018-02-12T00:43:56.615Z,2.60
2018-02-12T00:46:24.737Z,2.60
2018-02-12T00:48:52.862Z,2.60
2018-02-12T00:51:20.952Z,2.60
2018-02-12T00:53:49.064Z,2.60
2018-02-12T00:56:17.144Z,2.60
2018-02-12T00:58:45.238Z,2.50
2018-02-12T01:01:13.319Z,2.60
2018-02-12T01:03:41.506Z,2.60
2018-02-12T01:06:10.344Z,2.60
2018-02-12T01:08:38.576Z,2.50
2018-02-12T01:11:06.657Z,2.60
2018-02-12T01:13:34.757Z,2.60
2018-02-12T01:16:02.853Z,2.60
2018-02-12T01:18:30.979Z,2.60
2018-02-12T01:20:59.169Z,2.60
2018-02-12T01:23:27.417Z,2.60
2018-02-12T01:25:55.585Z,2.60
2018-02-12T01:28:24.840Z,2.60
2018-02-12T01:30:52.935Z,2.50
2018-02-12T01:33:21.024Z,2.60
2018-02-12T01:35:49.126Z,2.60
2018-02-12T01:38:17.212Z,2.60
2018-02-12T01:40:45.316Z,2.60
2018-02-12T01:43:13.407Z,2.60
2018-02-12T01:45:41.564Z,2.60
2018-02-12T01:48:09.658Z,2.60
2018-02-12T01:50:38.559Z,2.60
2018-02-12T01:53:06.690Z,2.50
2018-02-12T01:55:34.768Z,2.50
2018-02-12T01:58:02.868Z,2.50
2018-02-12T02:00:30.970Z,2.50
2018-02-12T02:02:59.069Z,2.50
2018-02-12T02:05:27.166Z,2.50
2018-02-12T02:07:56.036Z,2.60
2018-02-12T02:10:24.160Z,2.60
2018-02-12T02:12:52.300Z,2.60
2018-02-12T02:15:20.412Z,2.60
2018-02-12T02:17:48.575Z,2.60
2018-02-12T02:20:16.720Z,2.60
2018-02-12T02:22:44.782Z,2.60
2018-02-12T02:25:12.969Z,2.60
2018-02-12T02:27:41.819Z,2.60
2018-02-12T02:30:09.931Z,2.50
2018-02-12T02:32:38.785Z,2.60
2018-02-12T02:35:06.884Z,2.60
2018-02-12T02:37:34.975Z,2.60
2018-02-12T02:40:03.129Z,2.60
2018-02-12T02:42:31.324Z,2.60
2018-02-12T02:45:00.211Z,2.60
2018-02-12T02:47:28.423Z,2.60
2018-02-12T02:49:56.529Z,2.60
2018-02-12T02:52:24.615Z,2.60
2018-02-12T02:54:52.727Z,2.60
2018-02-12T02:57:20.868Z,2.50
2018-02-12T02:59:49.032Z,2.50
2018-02-12T03:02:17.530Z,2.50
2018-02-12T03:04:45.694Z,2.50
2018-02-12T03:07:13.802Z,2.50
2018-02-12T03:09:42.114Z,2.50
2018-02-12T03:12:10.206Z,2.50
2018-02-12T03:14:38.353Z,2.50
2018-02-12T03:17:06.453Z,2.50
2018-02-12T03:19:34.570Z,2.50
2018-02-12T03:22:02.670Z,2.50
2018-02-12T03:24:30.754Z,2.50
2018-02-12T03:26:59.823Z,2.50
2018-02-12T03:29:27.908Z,2.50
2018-02-12T03:31:56.015Z,2.50
2018-02-12T03:34:24.876Z,2.50
2018-02-12T03:36:52.991Z,2.50
2018-02-12T03:39:21.965Z,2.50
2018-02-12T03:41:50.139Z,2.50
2018-02-12T03:44:18.348Z,2.50
2018-02-12T03:46:46.450Z,2.50
2018-02-12T03:49:14.569Z,2.50
2018-02-12T03:51:42.883Z,2.50
2018-02-12T03:54:10.989Z,2.50
2018-02-12T03:56:39.065Z,2.50
2018-02-12T03:59:07.165Z,2.50
2018-02-12T04:01:35.349Z,2.50
2018-02-12T04:04:04.210Z,2.50
2018-02-12T04:06:32.298Z,2.50
2018-02-12T04:09:01.159Z,2.50
2018-02-12T04:11:29.285Z,2.50
2018-02-12T04:13:57.382Z,2.50
2018-02-12T04:16:25.504Z,2.50
2018-02-12T04:18:53.603Z,2.50
2018-02-12T04:21:21.688Z,2.60
2018-02-12T04:23:49.822Z,2.60
2018-02-12T04:26:18.688Z,2.60
2018-02-12T04:28:46.784Z,2.60
2018-02-12T04:31:15.648Z,2.60
2018-02-12T04:33:43.744Z,2.60
2018-02-12T04:36:12.627Z,2.50
2018-02-12T04:38:41.498Z,2.60
2018-02-12T04:41:09.605Z,2.50
2018-02-12T04:43:37.726Z,2.50
2018-02-12T04:46:05.818Z,2.50
2018-02-12T04:48:33.917Z,2.50
2018-02-12T04:51:02.027Z,2.50
2018-02-12T04:53:30.132Z,2.60
2018-02-12T04:55:58.839Z,2.60
2018-02-12T04:58:27.001Z,2.60
2018-02-12T05:00:55.080Z,2.60
2018-02-12T05:03:23.241Z,2.70
2018-02-12T05:05:51.336Z,2.70
2018-02-12T05:08:20.213Z,2.70
2018-02-12T05:10:48.307Z,2.70
2018-02-12T05:13:16.809Z,2.70
2018-02-12T05:15:44.959Z,2.70
2018-02-12T05:18:13.041Z,2.70
2018-02-12T05:20:41.163Z,2.70
2018-02-12T05:23:09.239Z,2.70
2018-02-12T05:25:37.389Z,2.70
2018-02-12T05:28:05.480Z,2.70
2018-02-12T05:30:33.573Z,2.80
2018-02-12T05:33:01.660Z,2.80
2018-02-12T05:35:29.752Z,2.80
2018-02-12T05:37:57.886Z,2.70
2018-02-12T05:40:26.091Z,2.70
2018-02-12T05:42:54.281Z,2.80
2018-02-12T05:45:22.383Z,2.70
2018-02-12T05:47:50.518Z,2.80
2018-02-12T05:50:18.698Z,2.70
2018-02-12T05:52:46.796Z,2.70
2018-02-12T05:55:14.892Z,2.70
2018-02-12T05:57:42.988Z,2.70
2018-02-12T06:00:11.142Z,2.70
2018-02-12T06:02:39.304Z,2.70
2018-02-12T06:05:07.472Z,2.70
2018-02-12T06:07:35.596Z,2.60
2018-02-12T06:10:03.700Z,2.60
2018-02-12T06:12:32.642Z,2.60
2018-02-12T06:15:00.743Z,2.60
2018-02-12T06:17:28.907Z,2.50
2018-02-12T06:19:57.085Z,2.40
2018-02-12T06:22:25.186Z,2.40
2018-02-12T06:24:53.291Z,2.30
2018-02-12T06:27:21.401Z,2.30
2018-02-12T06:29:49.527Z,2.20
2018-02-12T06:32:17.650Z,2.10
2018-02-12T06:34:45.747Z,2.10
2018-02-12T06:37:13.870Z,2.10
2018-02-12T06:39:41.940Z,2.10
2018-02-12T06:42:10.055Z,2.10
2018-02-12T06:44:38.199Z,2.10
2018-02-12T06:47:06.290Z,2.10
2018-02-12T06:49:34.365Z,2.10
2018-02-12T06:52:02.472Z,2.10
2018-02-12T06:54:30.684Z,2.10
2018-02-12T06:56:58.947Z,2.10
2018-02-12T06:59:27.040Z,2.10
2018-02-12T07:01:55.156Z,2.10
2018-02-12T07:04:23.258Z,2.00
2018-02-12T07:06:52.145Z,2.00
2018-02-12T07:09:20.310Z,2.10
2018-02-12T07:11:48.421Z,2.10
2018-02-12T07:14:16.518Z,2.10
2018-02-12T07:16:54.690Z,2.10
2018-02-12T07:19:22.806Z,2.10
2018-02-12T07:21:51.682Z,2.00
2018-02-12T07:24:19.852Z,2.00
2018-02-12T07:26:47.996Z,2.00
2018-02-12T07:29:16.865Z,1.90
2018-02-12T07:31:44.976Z,1.90
2018-02-12T07:34:13.070Z,1.90
2018-02-12T07:36:42.176Z,1.90
2018-02-12T07:39:10.776Z,1.90
2018-02-12T07:41:38.982Z,1.90
2018-02-12T07:44:07.225Z,1.90
2018-02-12T07:46:35.435Z,1.90
2018-02-12T07:49:04.301Z,1.90
2018-02-12T07:51:32.403Z,1.90
2018-02-12T07:54:00.558Z,1.90
2018-02-12T07:56:28.745Z,2.00
2018-02-12T07:58:56.851Z,2.00
2018-02-12T08:01:24.945Z,2.00
2018-02-12T08:03:53.167Z,2.00
2018-02-12T08:06:22.007Z,2.00
2018-02-12T08:08:50.109Z,2.00
2018-02-12T08:11:18.229Z,2.10
2018-02-12T08:13:46.333Z,2.10
2018-02-12T08:16:14.415Z,2.10
2018-02-12T08:18:42.516Z,2.10
2018-02-12T08:21:10.592Z,2.20
2018-02-12T08:23:38.762Z,2.20
2018-02-12T08:26:06.808Z,2.20
2018-02-12T08:28:34.920Z,2.20
2018-02-12T08:31:03.034Z,2.20
2018-02-12T08:33:31.181Z,2.10
2018-02-12T08:35:59.421Z,2.10
2018-02-12T08:38:27.656Z,2.10
2018-02-12T08:40:55.754Z,2.10
2018-02-12T08:43:23.850Z,2.10
2018-02-12T08:45:51.954Z,2.00
2018-02-12T08:48:20.045Z,2.00
2018-02-12T08:50:48.414Z,2.00
2018-02-12T08:53:16.576Z,2.00
2018-02-12T08:55:44.698Z,2.00
2018-02-12T08:58:13.630Z,1.90
2018-02-12T09:00:41.828Z,1.90
2018-02-12T09:03:09.997Z,1.90
2018-02-12T09:05:38.038Z,1.90
2018-02-12T09:08:06.145Z,1.90
2018-02-12T09:10:34.228Z,1.90
2018-02-12T09:13:02.351Z,1.90
2018-02-12T09:15:30.435Z,1.90
2018-02-12T09:17:58.660Z,1.90
2018-02-12T09:20:26.801Z,2.00
2018-02-12T09:22:54.906Z,2.00
2018-02-12T09:25:23.019Z,2.00
2018-02-12T09:27:51.116Z,2.00
2018-02-12T09:30:19.241Z,2.10
2018-02-12T09:32:47.325Z,2.10
2018-02-12T09:35:15.425Z,2.10
2018-02-12T09:37:43.503Z,2.20
2018-02-12T09:40:11.822Z,2.30
2018-02-12T09:42:41.187Z,2.30
2018-02-12T09:45:09.364Z,2.40
2018-02-12T09:47:37.516Z,2.40
2018-02-12T09:50:05.604Z,2.40
2018-02-12T09:52:33.702Z,2.50
2018-02-12T09:55:01.790Z,2.60
2018-02-12T09:57:29.902Z,2.70
2018-02-12T09:59:57.989Z,2.70
2018-02-12T10:02:26.143Z,2.70
2018-02-12T10:04:54.288Z,2.70
2018-02-12T10:07:22.394Z,2.70
2018-02-12T10:09:50.500Z,2.80
2018-02-12T10:12:18.586Z,2.80
2018-02-12T10:14:46.692Z,2.80
2018-02-12T10:17:14.778Z,2.80
2018-02-12T10:19:42.876Z,2.80
2018-02-12T10:22:10.961Z,2.90
2018-02-12T10:24:39.075Z,2.90
2018-02-12T10:27:07.163Z,2.90
2018-02-12T10:29:35.268Z,2.80
2018-02-12T10:32:03.355Z,2.80
2018-02-12T10:34:31.464Z,2.80
2018-02-12T10:36:59.577Z,2.70
2018-02-12T10:39:27.674Z,2.70
2018-02-12T10:41:55.773Z,2.70
2018-02-12T10:44:23.901Z,2.70
2018-02-12T10:46:52.001Z,2.80
2018-02-12T10:49:20.855Z,3.10
2018-02-12T10:51:48.992Z,3.10
2018-02-12T10:54:17.077Z,3.20
2018-02-12T10:56:45.202Z,3.20
2018-02-12T10:59:13.308Z,3.30
2018-02-12T11:01:41.405Z,3.40
2018-02-12T11:04:09.500Z,3.40
2018-02-12T11:06:37.847Z,3.40
2018-02-12T11:09:05.940Z,3.40
2018-02-12T11:11:34.124Z,3.50
2018-02-12T11:14:02.430Z,3.40
2018-02-12T11:16:31.299Z,3.50
2018-02-12T11:18:59.394Z,3.40
2018-02-12T11:21:28.342Z,3.50
2018-02-12T11:23:56.438Z,3.50
2018-02-12T11:26:24.546Z,3.50
2018-02-12T11:28:52.637Z,3.40
2018-02-12T11:31:20.722Z,3.40
2018-02-12T11:33:48.826Z,3.40
2018-02-12T11:36:16.926Z,3.30
2018-02-12T11:38:45.791Z,3.10
2018-02-12T11:41:13.932Z,3.10
2018-02-12T11:43:42.019Z,3.10
2018-02-12T11:46:10.110Z,3.10
2018-02-12T11:48:38.560Z,3.00
2018-02-12T11:51:06.650Z,2.90
2018-02-12T11:53:34.837Z,2.90
2018-02-12T11:56:02.936Z,2.90
2018-02-12T11:58:31.037Z,2.90
2018-02-12T12:00:59.124Z,2.90
2018-02-12T12:03:27.283Z,3.00
2018-02-12T12:05:55.372Z,3.20
2018-02-12T12:08:23.501Z,3.40
2018-02-12T12:10:51.701Z,3.50
2018-02-12T12:13:19.813Z,3.50
2018-02-12T12:15:47.917Z,3.60
2018-02-12T12:18:16.010Z,3.60
2018-02-12T12:20:44.133Z,3.60
2018-02-12T12:23:12.357Z,3.60
2018-02-12T12:25:40.480Z,3.60
2018-02-12T12:28:08.576Z,3.60
2018-02-12T12:30:36.759Z,3.60
2018-02-12T12:33:04.856Z,3.70
2018-02-12T12:35:32.952Z,3.70
2018-02-12T12:38:01.056Z,3.60
2018-02-12T12:40:29.146Z,3.90
2018-02-12T12:42:57.264Z,4.00
2018-02-12T12:45:25.447Z,4.10
2018-02-12T12:47:53.551Z,4.10
2018-02-12T12:50:21.682Z,4.20
2018-02-12T12:52:50.580Z,4.30
2018-02-12T12:55:18.665Z,4.30
2018-02-12T12:57:46.820Z,4.40
2018-02-12T13:00:14.996Z,4.50
2018-02-12T13:02:43.110Z,4.60
2018-02-12T13:05:11.268Z,4.70
2018-02-12T13:07:39.366Z,4.80
2018-02-12T13:10:07.514Z,4.80
2018-02-12T13:12:35.599Z,4.90
2018-02-12T13:15:04.490Z,4.90
2018-02-12T13:17:32.586Z,4.90
2018-02-12T13:20:00.693Z,5.10
2018-02-12T13:22:28.804Z,5.00
2018-02-12T13:24:56.897Z,5.00
2018-02-12T13:27:24.987Z,4.90
2018-02-12T13:29:53.097Z,4.70
2018-02-12T13:32:21.267Z,4.70
2018-02-12T13:34:49.699Z,4.50
2018-02-12T13:37:17.797Z,4.50
2018-02-12T13:39:45.939Z,4.40
2018-02-12T13:42:14.041Z,4.30
2018-02-12T13:44:42.175Z,4.20
2018-02-12T13:47:10.280Z,4.00
2018-02-12T13:49:39.255Z,3.80
2018-02-12T13:52:07.395Z,3.70
2018-02-12T13:54:35.770Z,3.60
2018-02-12T13:57:03.865Z,3.60
2018-02-12T13:59:31.983Z,3.60
2018-02-12T14:02:00.112Z,3.60
2018-02-12T14:04:28.224Z,3.60
2018-02-12T14:06:57.084Z,3.60
2018-02-12T14:09:25.195Z,3.60
2018-02-12T14:11:53.273Z,3.70
2018-02-12T14:14:21.396Z,3.70
2018-02-12T14:16:49.606Z,3.70
2018-02-12T14:19:17.698Z,3.70
2018-02-12T14:21:45.783Z,3.70
2018-02-12T14:24:13.896Z,3.70
2018-02-12T14:26:41.989Z,3.80
2018-02-12T14:29:10.123Z,3.80
2018-02-12T14:31:38.244Z,3.80
2018-02-12T14:34:06.449Z,3.80
2018-02-12T14:36:35.391Z,3.70
2018-02-12T14:39:03.509Z,3.70
2018-02-12T14:41:31.613Z,3.70
2018-02-12T14:43:59.709Z,3.70
2018-02-12T14:46:27.810Z,3.80
2018-02-12T14:48:55.967Z,3.80
2018-02-12T14:51:24.207Z,3.80
2018-02-12T14:53:52.498Z,3.90
2018-02-12T14:56:20.754Z,3.90
2018-02-12T14:58:48.872Z,3.90
2018-02-12T15:01:16.986Z,3.90
2018-02-12T15:03:45.104Z,4.00
2018-02-12T15:06:13.197Z,4.00
2018-02-12T15:08:41.295Z,4.00
2018-02-12T15:11:10.187Z,3.90
2018-02-12T15:13:38.536Z,3.90
2018-02-12T15:16:06.680Z,3.80
2018-02-12T15:18:34.799Z,3.80
2018-02-12T15:21:03.002Z,3.70
2018-02-12T15:23:31.193Z,3.60
2018-02-12T15:25:59.367Z,3.60
2018-02-12T15:28:27.526Z,3.50
2018-02-12T15:30:55.626Z,3.50
2018-02-12T15:33:23.723Z,3.40
2018-02-12T15:35:51.834Z,3.40
2018-02-12T15:38:20.685Z,3.40
2018-02-12T15:40:48.897Z,3.40
2018-02-12T15:43:17.768Z,3.30
2018-02-12T15:45:45.924Z,3.30
2018-02-12T15:48:14.025Z,3.20
2018-02-12T15:50:42.128Z,3.20
2018-02-12T15:53:10.274Z,3.20
2018-02-12T15:55:39.144Z,3.10
2018-02-12T15:58:07.663Z,3.10
2018-02-12T16:00:35.796Z,3.10
2018-02-12T16:03:03.881Z,3.00
2018-02-12T16:05:31.989Z,3.00
2018-02-12T16:08:00.082Z,3.00
2018-02-12T16:10:28.200Z,3.00
2018-02-12T16:12:57.095Z,3.00
2018-02-12T16:15:25.200Z,3.00
2018-02-12T16:17:53.289Z,2.90
2018-02-12T16:20:21.401Z,2.90
2018-02-12T16:22:49.501Z,2.90
2018-02-12T16:25:17.607Z,3.00
2018-02-12T16:27:45.811Z,3.00
2018-02-12T16:30:14.008Z,2.90
2018-02-12T16:32:42.896Z,2.90
2018-02-12T16:35:11.002Z,2.80
2018-02-12T16:37:39.087Z,2.80
2018-02-12T16:40:07.197Z,2.80
2018-02-12T16:42:35.284Z,2.70
2018-02-12T16:45:03.426Z,2.70
2018-02-12T16:47:32.286Z,2.50
2018-02-12T16:50:00.400Z,2.50
2018-02-12T16:52:29.284Z,2.40
2018-02-12T16:54:57.434Z,2.40
2018-02-12T16:57:25.513Z,2.40
2018-02-12T16:59:53.632Z,2.40
2018-02-12T17:02:21.730Z,2.30
2018-02-12T17:04:49.848Z,2.30
2018-02-12T17:07:17.960Z,2.20
2018-02-12T17:09:46.063Z,2.20
2018-02-12T17:12:14.156Z,2.10
2018-02-12T17:14:42.350Z,2.10
2018-02-12T17:17:10.458Z,2.10
2018-02-12T17:19:38.543Z,2.00
2018-02-12T17:22:06.642Z,2.00
2018-02-12T17:24:34.728Z,1.90
2018-02-12T17:27:02.889Z,1.90
2018-02-12T17:29:31.748Z,1.80
2018-02-12T17:31:59.906Z,1.80
2018-02-12T17:34:28.029Z,1.80
2018-02-12T17:36:56.113Z,1.80
2018-02-12T17:39:24.203Z,1.80
2018-02-12T17:41:52.302Z,1.70
2018-02-12T17:44:20.407Z,1.70
2018-02-12T17:46:48.560Z,1.60
2018-02-12T17:49:16.685Z,1.50
2018-02-12T17:51:44.795Z,1.50
2018-02-12T17:54:12.909Z,1.40
2018-02-12T17:56:41.026Z,1.30
2018-02-12T17:59:09.121Z,1.20
2018-02-12T18:01:37.303Z,1.20
2018-02-12T18:04:05.407Z,1.10
2018-02-12T18:06:33.505Z,1.00
2018-02-12T18:09:02.165Z,0.90
2018-02-12T18:11:30.305Z,0.90
2018-02-12T18:13:58.560Z,0.80
2018-02-12T18:16:26.724Z,0.80
2018-02-12T18:18:54.956Z,0.70
2018-02-12T18:21:23.064Z,0.70
2018-02-12T18:23:51.168Z,0.70
2018-02-12T18:26:19.284Z,0.70
2018-02-12T18:28:47.394Z,0.70
2018-02-12T18:31:15.476Z,0.70
2018-02-12T18:33:44.049Z,0.70
2018-02-12T18:36:12.142Z,0.70
2018-02-12T18:38:40.230Z,0.60
2018-02-12T18:41:09.182Z,0.60
2018-02-12T18:43:37.270Z,0.60
2018-02-12T18:46:05.374Z,0.60
2018-02-12T18:48:34.424Z,0.60
2018-02-12T18:51:02.549Z,0.60
2018-02-12T18:53:30.668Z,0.70
2018-02-12T18:55:58.865Z,0.70
2018-02-12T18:58:26.994Z,0.70
2018-02-12T19:00:55.084Z,0.70
2018-02-12T19:03:23.273Z,0.70
2018-02-12T19:05:51.371Z,0.80
2018-02-12T19:08:19.541Z,0.90
2018-02-12T19:10:47.637Z,0.90
2018-02-12T19:13:15.735Z,1.00
2018-02-12T19:15:43.844Z,1.00
2018-02-12T19:18:11.989Z,1.00
2018-02-12T19:20:40.143Z,1.00
2018-02-12T19:23:08.260Z,1.00
2018-02-12T19:25:36.355Z,1.00
2018-02-12T19:28:04.451Z,1.00
2018-02-12T19:30:32.546Z,1.00
2018-02-12T19:33:00.665Z,1.00
2018-02-12T19:35:29.208Z,1.10
2018-02-12T19:37:57.803Z,1.10
2018-02-12T19:40:25.976Z,1.10
2018-02-12T19:42:54.244Z,1.10
2018-02-12T19:45:22.333Z,1.10
2018-02-12T19:47:50.442Z,1.10
2018-02-12T19:50:18.547Z,1.10
2018-02-12T19:52:46.728Z,1.10
2018-02-12T19:55:15.066Z,1.10
2018-02-12T19:57:43.172Z,1.10
2018-02-12T20:00:11.280Z,1.10
2018-02-12T20:02:39.492Z,1.10
2018-02-12T20:05:09.288Z,1.10
2018-02-12T20:07:38.165Z,1.10
2018-02-12T20:10:06.263Z,1.00
2018-02-12T20:12:34.687Z,1.00
2018-02-12T20:15:03.641Z,1.00
2018-02-12T20:17:32.494Z,0.90
2018-02-12T20:20:00.595Z,0.90
2018-02-12T20:22:29.459Z,0.80
2018-02-12T20:24:57.558Z,0.80
2018-02-12T20:27:25.647Z,0.80
2018-02-12T20:29:53.740Z,0.80
2018-02-12T20:32:22.632Z,0.80
2018-02-12T20:34:50.748Z,0.80
2018-02-12T20:37:18.935Z,0.80
2018-02-12T20:39:47.795Z,0.80
2018-02-12T20:42:15.943Z,0.80
2018-02-12T20:44:44.046Z,0.80
2018-02-12T20:47:12.735Z,0.80
2018-02-12T20:49:40.847Z,0.80
2018-02-12T20:52:08.933Z,0.80
2018-02-12T20:54:37.029Z,0.80
2018-02-12T20:57:05.128Z,0.80
2018-02-12T20:59:33.219Z,0.80
2018-02-12T21:02:01.302Z,0.90
2018-02-12T21:04:29.524Z,0.90
2018-02-12T21:06:57.709Z,0.90
2018-02-12T21:09:25.817Z,0.90
2018-02-12T21:11:53.949Z,0.90
2018-02-12T21:14:22.042Z,0.90
2018-02-12T21:16:50.161Z,0.90
2018-02-12T21:19:18.242Z,0.90
2018-02-12T21:21:46.356Z,0.80
2018-02-12T21:24:14.445Z,0.80
2018-02-12T21:26:42.550Z,0.80
2018-02-12T21:29:10.632Z,0.80
2018-02-12T21:31:38.756Z,0.80
2018-02-12T21:34:06.841Z,0.80
2018-02-12T21:36:34.952Z,0.70
2018-02-12T21:39:03.071Z,0.70
2018-02-12T21:41:31.258Z,0.70
2018-02-12T21:43:59.414Z,0.60
2018-02-12T21:46:27.519Z,0.60
2018-02-12T21:48:55.626Z,0.60
2018-02-12T21:51:23.743Z,0.60
2018-02-12T21:53:51.840Z,0.60
2018-02-12T21:56:19.947Z,0.60
2018-02-12T21:58:48.050Z,0.60
2018-02-12T22:01:16.271Z,0.60
2018-02-12T22:03:44.421Z,0.60
2018-02-12T22:06:12.525Z,0.60
2018-02-12T22:08:40.612Z,0.60
2018-02-12T22:11:08.739Z,0.60
2018-02-12T22:13:36.827Z,0.60
2018-02-12T22:16:04.922Z,0.60
2018-02-12T22:18:33.056Z,0.60
2018-02-12T22:21:01.138Z,0.60
2018-02-12T22:23:29.242Z,0.60
2018-02-12T22:25:57.342Z,0.50
2018-02-12T22:28:26.244Z,0.60
2018-02-12T22:30:54.589Z,0.50
2018-02-12T22:33:22.689Z,0.60
2018-02-12T22:35:50.770Z,0.60
2018-02-12T22:38:19.344Z,0.60
2018-02-12T22:40:47.440Z,0.60
2018-02-12T22:43:15.542Z,0.60
2018-02-12T22:45:43.788Z,0.60
2018-02-12T22:48:12.026Z,0.60
2018-02-12T22:50:40.218Z,0.60
2018-02-12T22:53:08.353Z,0.50
2018-02-12T22:55:36.464Z,0.50
2018-02-12T22:58:04.557Z,0.40
2018-02-12T23:00:33.277Z,0.40
2018-02-12T23:03:01.482Z,0.40
2018-02-12T23:05:30.359Z,0.30
2018-02-12T23:07:58.485Z,0.20
2018-02-12T23:10:26.572Z,0.20
2018-02-12T23:12:54.683Z,0.20
2018-02-12T23:15:28.309Z,0.20
2018-02-12T23:17:56.415Z,0.20
2018-02-12T23:20:24.518Z,0.20
2018-02-12T23:22:52.657Z,0.20
2018-02-12T23:25:20.747Z,0.20
2018-02-12T23:27:48.846Z,0.20
2018-02-12T23:30:16.963Z,0.20
2018-02-12T23:32:45.068Z,0.20
2018-02-12T23:35:13.928Z,0.10
2018-02-12T23:37:42.044Z,0.10
2018-02-12T23:40:10.153Z,0.10
2018-02-12T23:42:38.311Z,0.10
2018-02-12T23:45:06.539Z,0.10
2018-02-12T23:47:34.745Z,0.10
2018-02-12T23:50:02.839Z,0.20
2018-02-12T23:52:30.940Z,0.20
2018-02-12T23:54:59.781Z,0.20
2018-02-12T23:57:28.628Z,0.10
2018-02-12T23:59:56.719Z,0.10
